sensor_id;sensor_type;location;lat;lon;timestamp;pressure;altitude;pressure_sealevel;temperature;humidity
2761;BME280;15420;48.636;9.798;2022-10-16T00:01:28;96603.78;;;17.74;100.00
2761;BME280;15420;48.636;9.798;2022-10-16T00:03:56;96606.41;;;17.74;100.00
2761;BME280;15420;48.636;9.798;2022-10-16T00:06:23;96608.16;;;17.72;100.00
2761;BME280;15420;48.636;9.798;2022-10-16T00:08:50;96602.09;;;17.71;100.00
2761;BME280;15420;48.636;9.798;2022-10-16T00:11:22;96603.84;;;17.69;100.00
2761;BME280;15420;48.636;9.798;2022-10-16T00:13:50;96602.13;;;17.68;100.00
2761;BME280;15420;48.636;9.798;2022-10-16T00:16:18;96610.84;;;17.67;100.00
2761;BME280;15420;48.636;9.798;2022-10-16T00:18:44;96609.09;;;17.64;100.00
2761;BME280;15420;48.636;9.798;2022-10-16T00:21:22;96610.84;;;17.64;100.00
2761;BME280;15420;48.636;9.798;2022-10-16T00:24:00;96608.25;;;17.62;100.00
2761;BME280;15420;48.636;9.798;2022-10-16T00:26:28;96616.06;;;17.61;100.00
2761;BME280;15420;48.636;9.798;2022-10-16T00:28:54;96614.38;;;17.58;100.00
2761;BME280;15420;48.636;9.798;2022-10-16T00:31:24;96616.13;;;17.56;100.00
2761;BME280;15420;48.636;9.798;2022-10-16T00:33:50;96610.91;;;17.56;100.00
2761;BME280;15420;48.636;9.798;2022-10-16T00:36:21;96610.06;;;17.54;100.00
2761;BME280;15420;48.636;9.798;2022-10-16T00:38:51;96599.72;;;17.44;100.00
2761;BME280;15420;48.636;9.798;2022-10-16T00:41:21;96609.25;;;17.49;100.00
2761;BME280;15420;48.636;9.798;2022-10-16T00:43:59;96601.44;;;17.48;100.00
2761;BME280;15420;48.636;9.798;2022-10-16T00:49:02;96603.22;;;17.43;100.00
2761;BME280;15420;48.636;9.798;2022-10-16T00:51:43;96610.16;;;17.42;100.00
2761;BME280;15420;48.636;9.798;2022-10-16T00:56:45;96618.91;;;17.35;100.00
2761;BME280;15420;48.636;9.798;2022-10-16T00:59:20;96630.19;;;17.37;100.00
2761;BME280;15420;48.636;9.798;2022-10-16T01:01:48;96625.88;;;17.31;100.00
2761;BME280;15420;48.636;9.798;2022-10-16T01:04:15;96624.16;;;17.32;100.00
2761;BME280;15420;48.636;9.798;2022-10-16T01:06:43;96628.50;;;17.30;100.00
2761;BME280;15420;48.636;9.798;2022-10-16T01:09:22;96626.78;;;17.29;100.00
2761;BME280;15420;48.636;9.798;2022-10-16T01:12:09;96631.13;;;17.28;100.00
2761;BME280;15420;48.636;9.798;2022-10-16T01:20:37;96615.56;;;17.19;100.00
2761;BME280;15420;48.636;9.798;2022-10-16T01:23:42;96607.75;;;17.19;100.00
2761;BME280;15420;48.636;9.798;2022-10-16T01:29:03;96619.06;;;17.14;100.00
2761;BME280;15420;48.636;9.798;2022-10-16T01:31:38;96615.63;;;17.12;100.00
2761;BME280;15420;48.636;9.798;2022-10-16T01:34:20;96615.63;;;17.12;100.00
2761;BME280;15420;48.636;9.798;2022-10-16T01:36:56;96621.72;;;17.09;100.00
2761;BME280;15420;48.636;9.798;2022-10-16T01:39:30;96631.25;;;17.09;100.00
2761;BME280;15420;48.636;9.798;2022-10-16T01:42:15;96626.91;;;17.09;100.00
2761;BME280;15420;48.636;9.798;2022-10-16T01:44:44;96631.28;;;17.07;100.00
2761;BME280;15420;48.636;9.798;2022-10-16T01:47:13;96633.00;;;17.08;100.00
2761;BME280;15420;48.636;9.798;2022-10-16T01:49:42;96626.97;;;17.05;100.00
2761;BME280;15420;48.636;9.798;2022-10-16T01:52:19;96635.63;;;17.05;100.00
2761;BME280;15420;48.636;9.798;2022-10-16T01:54:50;96635.63;;;17.04;100.00
2761;BME280;15420;48.636;9.798;2022-10-16T01:57:20;96638.25;;;17.04;100.00
2761;BME280;15420;48.636;9.798;2022-10-16T01:59:50;96631.31;;;17.03;100.00
2761;BME280;15420;48.636;9.798;2022-10-16T02:02:19;96627.84;;;17.02;100.00
2761;BME280;15420;48.636;9.798;2022-10-16T02:04:53;96623.50;;;16.99;100.00
2761;BME280;15420;48.636;9.798;2022-10-16T02:07:20;96622.66;;;16.99;100.00
2761;BME280;15420;48.636;9.798;2022-10-16T02:09:50;96628.72;;;16.98;100.00
2761;BME280;15420;48.636;9.798;2022-10-16T02:12:33;96627.84;;;16.99;100.00
2761;BME280;15420;48.636;9.798;2022-10-16T02:15:01;96620.94;;;16.98;100.00
2761;BME280;15420;48.636;9.798;2022-10-16T02:17:27;96619.19;;;17.00;100.00
2761;BME280;15420;48.636;9.798;2022-10-16T02:19:55;96626.97;;;17.00;100.00
2761;BME280;15420;48.636;9.798;2022-10-16T02:22:43;96626.09;;;17.01;100.00
2761;BME280;15420;48.636;9.798;2022-10-16T02:25:24;96623.50;;;17.03;100.00
2761;BME280;15420;48.636;9.798;2022-10-16T02:28:01;96631.31;;;17.03;100.00
2761;BME280;15420;48.636;9.798;2022-10-16T02:30:42;96624.34;;;17.05;100.00
2761;BME280;15420;48.636;9.798;2022-10-16T02:33:12;96629.56;;;17.05;100.00
2761;BME280;15420;48.636;9.798;2022-10-16T02:35:44;96630.41;;;17.07;100.00
2761;BME280;15420;48.636;9.798;2022-10-16T02:38:13;96633.00;;;17.07;100.00
2761;BME280;15420;48.636;9.798;2022-10-16T02:40:41;96627.78;;;17.08;100.00
2761;BME280;15420;48.636;9.798;2022-10-16T02:43:11;96626.06;;;17.09;100.00
2761;BME280;15420;48.636;9.798;2022-10-16T02:45:37;96625.19;;;17.10;100.00
2761;BME280;15420;48.636;9.798;2022-10-16T02:48:04;96627.78;;;17.10;100.00
2761;BME280;15420;48.636;9.798;2022-10-16T02:50:30;96631.25;;;17.10;100.00
2761;BME280;15420;48.636;9.798;2022-10-16T02:52:56;96628.66;;;17.10;100.00
2761;BME280;15420;48.636;9.798;2022-10-16T02:55:22;96632.97;;;17.14;100.00
2761;BME280;15420;48.636;9.798;2022-10-16T02:57:51;96626.03;;;17.13;100.00
2761;BME280;15420;48.636;9.798;2022-10-16T03:00:23;96633.84;;;17.13;100.00
2761;BME280;15420;48.636;9.798;2022-10-16T03:02:49;96638.16;;;17.14;100.00
2761;BME280;15420;48.636;9.798;2022-10-16T03:05:16;96643.38;;;17.14;100.00
2761;BME280;15420;48.636;9.798;2022-10-16T03:07:42;96616.47;;;17.14;100.00
2761;BME280;15420;48.636;9.798;2022-10-16T03:10:11;96603.44;;;17.14;100.00
2761;BME280;15420;48.636;9.798;2022-10-16T03:12:37;96624.25;;;17.17;100.00
2761;BME280;15420;48.636;9.798;2022-10-16T03:15:05;96628.63;;;17.13;100.00
2761;BME280;15420;48.636;9.798;2022-10-16T03:17:33;96631.22;;;17.13;100.00
2761;BME280;15420;48.636;9.798;2022-10-16T03:19:59;96618.22;;;17.13;100.00
2761;BME280;15420;48.636;9.798;2022-10-16T03:22:30;96632.97;;;17.13;100.00
2761;BME280;15420;48.636;9.798;2022-10-16T03:24:56;96631.22;;;17.13;100.00
2761;BME280;15420;48.636;9.798;2022-10-16T03:27:26;96626.03;;;17.13;100.00
2761;BME280;15420;48.636;9.798;2022-10-16T03:29:54;96632.09;;;17.14;100.00
2761;BME280;15420;48.636;9.798;2022-10-16T03:32:20;96637.31;;;17.14;100.00
2761;BME280;15420;48.636;9.798;2022-10-16T03:34:48;96637.31;;;17.14;100.00
2761;BME280;15420;48.636;9.798;2022-10-16T03:37:18;96628.63;;;17.12;100.00
2761;BME280;15420;48.636;9.798;2022-10-16T03:39:44;96634.72;;;17.12;100.00
2761;BME280;15420;48.636;9.798;2022-10-16T03:42:13;96626.03;;;17.12;100.00
2761;BME280;15420;48.636;9.798;2022-10-16T03:44:39;96626.03;;;17.13;100.00
2761;BME280;15420;48.636;9.798;2022-10-16T03:47:05;96629.53;;;17.09;100.00
2761;BME280;15420;48.636;9.798;2022-10-16T03:49:31;96619.09;;;17.09;100.00
2761;BME280;15420;48.636;9.798;2022-10-16T03:52:00;96626.94;;;17.08;100.00
2761;BME280;15420;48.636;9.798;2022-10-16T03:54:28;96619.97;;;17.08;100.00
2761;BME280;15420;48.636;9.798;2022-10-16T03:56:54;96613.03;;;17.10;100.00
2761;BME280;15420;48.636;9.798;2022-10-16T03:59:20;96609.56;;;17.11;100.00
2761;BME280;15420;48.636;9.798;2022-10-16T04:01:46;96612.16;;;17.10;100.00
2761;BME280;15420;48.636;9.798;2022-10-16T04:04:13;96622.56;;;17.10;100.00
2761;BME280;15420;48.636;9.798;2022-10-16T04:06:39;96631.25;;;17.10;100.00
2761;BME280;15420;48.636;9.798;2022-10-16T04:09:15;96627.78;;;17.11;100.00
2761;BME280;15420;48.636;9.798;2022-10-16T04:11:45;96634.72;;;17.11;100.00
2761;BME280;15420;48.636;9.798;2022-10-16T04:14:11;96643.41;;;17.11;100.00
2761;BME280;15420;48.636;9.798;2022-10-16T04:16:40;96635.59;;;17.11;100.00
2761;BME280;15420;48.636;9.798;2022-10-16T04:19:10;96639.06;;;17.12;100.00
2761;BME280;15420;48.636;9.798;2022-10-16T04:21:36;96638.19;;;17.13;100.00
2761;BME280;15420;48.636;9.798;2022-10-16T04:24:30;96640.78;;;17.11;100.00
2761;BME280;15420;48.636;9.798;2022-10-16T04:26:56;96651.22;;;17.08;100.00
2761;BME280;15420;48.636;9.798;2022-10-16T04:29:23;96656.44;;;17.08;100.00
2761;BME280;15420;48.636;9.798;2022-10-16T04:31:49;96647.75;;;17.08;100.00
2761;BME280;15420;48.636;9.798;2022-10-16T04:34:17;96658.19;;;17.08;100.00
2761;BME280;15420;48.636;9.798;2022-10-16T04:36:43;96661.66;;;17.08;100.00
2761;BME280;15420;48.636;9.798;2022-10-16T04:39:10;96655.56;;;17.08;100.00
2761;BME280;15420;48.636;9.798;2022-10-16T04:41:36;96657.31;;;17.09;100.00
2761;BME280;15420;48.636;9.798;2022-10-16T04:44:02;96659.91;;;17.09;100.00
2761;BME280;15420;48.636;9.798;2022-10-16T04:46:30;96654.72;;;17.07;100.00
2761;BME280;15420;48.636;9.798;2022-10-16T04:48:59;96656.44;;;17.07;100.00
2761;BME280;15420;48.636;9.798;2022-10-16T04:51:25;96657.31;;;17.06;100.00
2761;BME280;15420;48.636;9.798;2022-10-16T04:53:54;96656.47;;;17.05;100.00
2761;BME280;15420;48.636;9.798;2022-10-16T04:56:25;96654.72;;;17.04;100.00
2761;BME280;15420;48.636;9.798;2022-10-16T04:59:00;96667.75;;;17.03;100.00
2761;BME280;15420;48.636;9.798;2022-10-16T05:01:32;96655.59;;;17.05;100.00
2761;BME280;15420;48.636;9.798;2022-10-16T05:03:58;96657.34;;;17.03;100.00
2761;BME280;15420;48.636;9.798;2022-10-16T05:06:26;96674.69;;;17.04;100.00
2761;BME280;15420;48.636;9.798;2022-10-16T05:08:53;96657.34;;;17.04;100.00
2761;BME280;15420;48.636;9.798;2022-10-16T05:11:19;96659.06;;;17.05;100.00
2761;BME280;15420;48.636;9.798;2022-10-16T05:13:47;96664.25;;;17.07;100.00
2761;BME280;15420;48.636;9.798;2022-10-16T05:16:16;96670.31;;;17.07;100.00
2761;BME280;15420;48.636;9.798;2022-10-16T05:18:44;96667.72;;;17.06;100.00
2761;BME280;15420;48.636;9.798;2022-10-16T05:21:13;96660.78;;;17.08;100.00
2761;BME280;15420;48.636;9.798;2022-10-16T05:23:39;96655.56;;;17.08;100.00
2761;BME280;15420;48.636;9.798;2022-10-16T05:26:08;96654.72;;;17.07;100.00
2761;BME280;15420;48.636;9.798;2022-10-16T05:28:34;96658.19;;;17.08;100.00
2761;BME280;15420;48.636;9.798;2022-10-16T05:31:08;96662.53;;;17.07;100.00
2761;BME280;15420;48.636;9.798;2022-10-16T05:33:34;96670.31;;;17.07;100.00
2761;BME280;15420;48.636;9.798;2022-10-16T05:36:06;96671.19;;;17.11;100.00
2761;BME280;15420;48.636;9.798;2022-10-16T05:38:33;96684.22;;;17.08;100.00
2761;BME280;15420;48.636;9.798;2022-10-16T05:41:02;96683.34;;;17.07;100.00
2761;BME280;15420;48.636;9.798;2022-10-16T05:43:29;96683.31;;;17.10;100.00
2761;BME280;15420;48.636;9.798;2022-10-16T05:46:01;96685.03;;;17.13;100.00
2761;BME280;15420;48.636;9.798;2022-10-16T05:48:30;96685.03;;;17.13;100.00
2761;BME280;15420;48.636;9.798;2022-10-16T05:51:10;96690.25;;;17.16;100.00
2761;BME280;15420;48.636;9.798;2022-10-16T05:53:40;96697.19;;;17.14;100.00
2761;BME280;15420;48.636;9.798;2022-10-16T05:56:08;96690.25;;;17.13;100.00
2761;BME280;15420;48.636;9.798;2022-10-16T05:58:37;96698.91;;;17.15;100.00
2761;BME280;15420;48.636;9.798;2022-10-16T06:01:12;96696.31;;;17.16;100.00
2761;BME280;15420;48.636;9.798;2022-10-16T06:03:43;96693.72;;;17.13;100.00
2761;BME280;15420;48.636;9.798;2022-10-16T06:08:41;96702.41;;;17.14;100.00
2761;BME280;15420;48.636;9.798;2022-10-16T06:11:10;96700.63;;;17.17;100.00
2761;BME280;15420;48.636;9.798;2022-10-16T06:13:37;96712.78;;;17.17;100.00
2761;BME280;15420;48.636;9.798;2022-10-16T06:16:05;96711.06;;;17.17;100.00
2761;BME280;15420;48.636;9.798;2022-10-16T06:18:31;96714.53;;;17.18;100.00
2761;BME280;15420;48.636;9.798;2022-10-16T06:20:57;96711.06;;;17.17;100.00
2761;BME280;15420;48.636;9.798;2022-10-16T06:23:28;96711.06;;;17.16;100.00
2761;BME280;15420;48.636;9.798;2022-10-16T06:26:13;96717.13;;;17.18;100.00
2761;BME280;15420;48.636;9.798;2022-10-16T06:28:42;96712.78;;;17.17;100.00
2761;BME280;15420;48.636;9.798;2022-10-16T06:31:09;96723.22;;;17.14;100.00
2761;BME280;15420;48.636;9.798;2022-10-16T06:33:37;96718.88;;;17.17;100.00
2761;BME280;15420;48.636;9.798;2022-10-16T06:36:06;96721.47;;;17.17;100.00
2761;BME280;15420;48.636;9.798;2022-10-16T06:38:37;96735.38;;;17.16;100.00
2761;BME280;15420;48.636;9.798;2022-10-16T06:41:05;96738.81;;;17.18;100.00
2761;BME280;15420;48.636;9.798;2022-10-16T06:43:32;96740.56;;;17.18;100.00
2761;BME280;15420;48.636;9.798;2022-10-16T06:45:59;96731.88;;;17.19;100.00
2761;BME280;15420;48.636;9.798;2022-10-16T06:48:28;96748.34;;;17.22;100.00
2761;BME280;15420;48.636;9.798;2022-10-16T06:50:59;96747.47;;;17.26;100.00
2761;BME280;15420;48.636;9.798;2022-10-16T06:53:32;96751.78;;;17.30;100.00
2761;BME280;15420;48.636;9.798;2022-10-16T06:56:10;96749.16;;;17.35;100.00
2761;BME280;15420;48.636;9.798;2022-10-16T06:58:39;96749.13;;;17.37;100.00
2761;BME280;15420;48.636;9.798;2022-10-16T07:01:08;96752.59;;;17.42;100.00
2761;BME280;15420;48.636;9.798;2022-10-16T07:03:39;96753.41;;;17.47;100.00
2761;BME280;15420;48.636;9.798;2022-10-16T07:06:07;96757.72;;;17.52;100.00
2761;BME280;15420;48.636;9.798;2022-10-16T07:08:35;96762.91;;;17.55;100.00
2761;BME280;15420;48.636;9.798;2022-10-16T07:11:06;96756.78;;;17.61;100.00
2761;BME280;15420;48.636;9.798;2022-10-16T07:13:37;96767.22;;;17.62;100.00
2761;BME280;15420;48.636;9.798;2022-10-16T07:16:11;96772.41;;;17.67;100.00
2761;BME280;15420;48.636;9.798;2022-10-16T07:18:38;96780.16;;;17.73;100.00
2761;BME280;15420;48.636;9.798;2022-10-16T07:21:25;96776.66;;;17.79;100.00
2761;BME280;15420;48.636;9.798;2022-10-16T07:24:05;96780.06;;;17.85;100.00
2761;BME280;15420;48.636;9.798;2022-10-16T07:26:34;96777.44;;;17.88;100.00
2761;BME280;15420;48.636;9.798;2022-10-16T07:29:02;96785.25;;;17.91;100.00
2761;BME280;15420;48.636;9.798;2022-10-16T07:31:29;96786.06;;;17.96;100.00
2761;BME280;15420;48.636;9.798;2022-10-16T07:33:55;96786.03;;;18.00;100.00
2761;BME280;15420;48.636;9.798;2022-10-16T07:36:28;96786.03;;;18.03;100.00
2761;BME280;15420;48.636;9.798;2022-10-16T07:38:54;96792.94;;;18.05;100.00
2761;BME280;15420;48.636;9.798;2022-10-16T07:41:20;96791.19;;;18.07;100.00
2761;BME280;15420;48.636;9.798;2022-10-16T07:43:52;96803.31;;;18.14;100.00
2761;BME280;15420;48.636;9.798;2022-10-16T07:46:23;96802.41;;;18.17;100.00
2761;BME280;15420;48.636;9.798;2022-10-16T07:48:49;96799.78;;;18.21;100.00
2761;BME280;15420;48.636;9.798;2022-10-16T07:51:18;96804.97;;;18.24;100.00
2761;BME280;15420;48.636;9.798;2022-10-16T07:53:45;96808.41;;;18.29;100.00
2761;BME280;15420;48.636;9.798;2022-10-16T07:56:13;96808.34;;;18.34;100.00
2761;BME280;15420;48.636;9.798;2022-10-16T07:58:39;96812.69;;;18.37;100.00
2761;BME280;15420;48.636;9.798;2022-10-16T08:01:10;96804.78;;;18.43;100.00
2761;BME280;15420;48.636;9.798;2022-10-16T08:03:37;96815.22;;;18.44;100.00
2761;BME280;15420;48.636;9.798;2022-10-16T08:06:04;96816.91;;;18.50;100.00
2761;BME280;15420;48.636;9.798;2022-10-16T08:08:30;96823.81;;;18.54;100.00
2761;BME280;15420;48.636;9.798;2022-10-16T08:10:56;96819.44;;;18.60;100.00
2761;BME280;15420;48.636;9.798;2022-10-16T08:13:26;96830.72;;;18.64;100.00
2761;BME280;15420;48.636;9.798;2022-10-16T08:16:23;96832.34;;;18.73;100.00
2761;BME280;15420;48.636;9.798;2022-10-16T08:18:49;96834.94;;;18.74;100.00
2761;BME280;15420;48.636;9.798;2022-10-16T08:21:27;96840.06;;;18.83;100.00
2761;BME280;15420;48.636;9.798;2022-10-16T08:23:54;96839.16;;;18.87;100.00
2761;BME280;15420;48.636;9.798;2022-10-16T08:26:23;96834.72;;;18.94;100.00
2761;BME280;15420;48.636;9.798;2022-10-16T08:28:52;96840.75;;;19.01;100.00
2761;BME280;15420;48.636;9.798;2022-10-16T08:31:18;96848.53;;;19.04;100.00
2761;BME280;15420;48.636;9.798;2022-10-16T08:33:45;96845.84;;;19.11;100.00
2761;BME280;15420;48.636;9.798;2022-10-16T08:36:13;96859.72;;;19.16;100.00
2761;BME280;15420;48.636;9.798;2022-10-16T08:38:40;96866.63;;;19.22;100.00
2761;BME280;15420;48.636;9.798;2022-10-16T08:41:23;96856.97;;;19.27;100.00
2761;BME280;15420;48.636;9.798;2022-10-16T08:44:07;96853.44;;;19.33;100.00
2761;BME280;15420;48.636;9.798;2022-10-16T08:49:23;96849.00;;;19.39;99.93
2761;BME280;15420;48.636;9.798;2022-10-16T08:51:51;96853.28;;;19.43;100.00
2761;BME280;15420;48.636;9.798;2022-10-16T08:54:47;96859.31;;;19.53;99.77
2761;BME280;15420;48.636;9.798;2022-10-16T08:59:40;96860.94;;;19.62;99.34
2761;BME280;15420;48.636;9.798;2022-10-16T09:02:26;96857.38;;;19.67;99.58
2761;BME280;15420;48.636;9.798;2022-10-16T09:10:43;96865.84;;;19.83;98.03
2761;BME280;15420;48.636;9.798;2022-10-16T09:21:41;96891.72;;;20.03;96.60
2761;BME280;15420;48.636;9.798;2022-10-16T09:24:23;96896.81;;;20.12;96.31
2761;BME280;15420;48.636;9.798;2022-10-16T09:26:51;96898.50;;;20.14;96.99
2761;BME280;15420;48.636;9.798;2022-10-16T09:29:19;96891.47;;;20.18;96.60
2761;BME280;15420;48.636;9.798;2022-10-16T09:31:51;96896.66;;;20.21;96.00
2761;BME280;15420;48.636;9.798;2022-10-16T09:34:27;96908.81;;;20.27;95.69
2761;BME280;15420;48.636;9.798;2022-10-16T09:36:57;96912.25;;;20.30;96.32
2761;BME280;15420;48.636;9.798;2022-10-16T09:39:24;96915.69;;;20.34;95.21
2761;BME280;15420;48.636;9.798;2022-10-16T09:41:51;96915.63;;;20.40;95.38
2761;BME280;15420;48.636;9.798;2022-10-16T09:44:31;96916.34;;;20.48;94.36
2761;BME280;15420;48.636;9.798;2022-10-16T09:47:17;96911.00;;;20.55;94.66
2761;BME280;15420;48.636;9.798;2022-10-16T09:49:57;96910.00;;;20.63;93.45
2761;BME280;15420;48.636;9.798;2022-10-16T09:52:28;96910.75;;;20.71;93.19
2761;BME280;15420;48.636;9.798;2022-10-16T09:54:57;96908.84;;;20.79;94.02
2761;BME280;15420;48.636;9.798;2022-10-16T09:57:24;96908.69;;;20.86;92.69
2761;BME280;15420;48.636;9.798;2022-10-16T10:02:36;96901.47;;;20.99;92.59
2761;BME280;15420;48.636;9.798;2022-10-16T10:05:06;96908.41;;;21.03;91.85
2761;BME280;15420;48.636;9.798;2022-10-16T10:07:46;96903.91;;;21.10;91.04
2761;BME280;15420;48.636;9.798;2022-10-16T10:10:27;96909.88;;;21.18;90.36
2761;BME280;15420;48.636;9.798;2022-10-16T10:12:57;96908.88;;;21.27;89.78
2761;BME280;15420;48.636;9.798;2022-10-16T10:15:24;96907.88;;;21.32;89.63
2761;BME280;15420;48.636;9.798;2022-10-16T10:17:57;96914.75;;;21.38;89.42
2761;BME280;15420;48.636;9.798;2022-10-16T10:22:56;96907.63;;;21.46;88.99
2761;BME280;15420;48.636;9.798;2022-10-16T10:36:02;96909.00;;;21.64;88.46
2761;BME280;15420;48.636;9.798;2022-10-16T10:41:48;96911.28;;;21.80;87.09
2761;BME280;15420;48.636;9.798;2022-10-16T10:52:34;96900.13;;;22.09;85.73
2761;BME280;15420;48.636;9.798;2022-10-16T11:01:20;96906.78;;;22.26;83.89
2761;BME280;15420;48.636;9.798;2022-10-16T11:06:40;96916.00;;;22.42;83.05
2761;BME280;15420;48.636;9.798;2022-10-16T11:11:51;96910.63;;;22.48;82.04
2761;BME280;15420;48.636;9.798;2022-10-16T11:14:35;96910.53;;;22.51;82.23
2761;BME280;15420;48.636;9.798;2022-10-16T11:17:19;96909.53;;;22.57;82.19
2761;BME280;15420;48.636;9.798;2022-10-16T11:22:39;96906.84;;;22.60;82.16
2761;BME280;15420;48.636;9.798;2022-10-16T11:28:02;96912.66;;;22.72;81.32
2761;BME280;15420;48.636;9.798;2022-10-16T11:30:39;96910.78;;;22.77;80.80
2761;BME280;15420;48.636;9.798;2022-10-16T11:55:47;96902.47;;;24.17;73.94
2761;BME280;15420;48.636;9.798;2022-10-16T12:00:53;96901.63;;;24.72;71.21
2761;BME280;15420;48.636;9.798;2022-10-16T12:08:44;96895.53;;;25.46;68.13
2761;BME280;15420;48.636;9.798;2022-10-16T12:11:32;96897.53;;;25.64;65.71
2761;BME280;15420;48.636;9.798;2022-10-16T12:16:31;96896.97;;;26.01;65.02
2761;BME280;15420;48.636;9.798;2022-10-16T12:19:26;96894.22;;;26.26;63.58
2761;BME280;15420;48.636;9.798;2022-10-16T12:21:55;96886.53;;;26.44;63.24
2761;BME280;15420;48.636;9.798;2022-10-16T12:26:54;96890.25;;;26.82;61.17
2761;BME280;15420;48.636;9.798;2022-10-16T12:34:48;96892.31;;;27.36;58.89
2761;BME280;15420;48.636;9.798;2022-10-16T12:37:34;96895.81;;;27.57;57.72
2761;BME280;15420;48.636;9.798;2022-10-16T12:42:39;96898.88;;;27.87;57.10
2761;BME280;15420;48.636;9.798;2022-10-16T12:47:53;96901.09;;;28.15;55.81
2761;BME280;15420;48.636;9.798;2022-10-16T12:50:35;96900.41;;;28.30;55.15
2761;BME280;15420;48.636;9.798;2022-10-16T12:53:16;96901.69;;;28.40;55.43
2761;BME280;15420;48.636;9.798;2022-10-16T12:58:45;96902.44;;;28.61;54.48
2761;BME280;15420;48.636;9.798;2022-10-16T13:01:40;96906.28;;;28.73;54.92
2761;BME280;15420;48.636;9.798;2022-10-16T13:04:29;96898.78;;;28.81;54.54
2761;BME280;15420;48.636;9.798;2022-10-16T13:10:13;96907.19;;;28.90;55.52
2761;BME280;15420;48.636;9.798;2022-10-16T13:18:29;96916.31;;;28.85;55.26
2761;BME280;15420;48.636;9.798;2022-10-16T13:21:10;96923.25;;;28.87;55.16
2761;BME280;15420;48.636;9.798;2022-10-16T13:29:19;96920.84;;;28.83;56.30
2761;BME280;15420;48.636;9.798;2022-10-16T13:31:51;96925.06;;;28.87;56.37
2761;BME280;15420;48.636;9.798;2022-10-16T13:34:20;96922.25;;;28.90;55.74
2761;BME280;15420;48.636;9.798;2022-10-16T13:36:51;96925.78;;;28.90;54.73
2761;BME280;15420;48.636;9.798;2022-10-16T13:39:24;96920.47;;;28.90;54.56
2761;BME280;15420;48.636;9.798;2022-10-16T13:44:42;96920.69;;;28.86;55.42
2761;BME280;15420;48.636;9.798;2022-10-16T13:49:45;96927.34;;;28.76;55.59
2761;BME280;15420;48.636;9.798;2022-10-16T13:52:19;96928.28;;;28.75;54.99
2761;BME280;15420;48.636;9.798;2022-10-16T13:54:50;96918.91;;;28.68;55.03
2761;BME280;15420;48.636;9.798;2022-10-16T13:57:25;96917.34;;;28.63;54.92
2761;BME280;15420;48.636;9.798;2022-10-16T13:59:52;96922.00;;;28.58;55.15
2761;BME280;15420;48.636;9.798;2022-10-16T14:02:34;96917.78;;;28.54;54.46
2761;BME280;15420;48.636;9.798;2022-10-16T14:05:04;96924.38;;;28.46;55.24
2761;BME280;15420;48.636;9.798;2022-10-16T14:07:35;96936.22;;;28.39;55.24
2761;BME280;15420;48.636;9.798;2022-10-16T14:10:07;96931.28;;;28.31;54.56
2761;BME280;15420;48.636;9.798;2022-10-16T14:12:46;96930.97;;;28.18;55.72
2761;BME280;15420;48.636;9.798;2022-10-16T14:15:19;96925.22;;;28.09;55.35
2761;BME280;15420;48.636;9.798;2022-10-16T14:17:48;96922.31;;;27.96;55.45
2761;BME280;15420;48.636;9.798;2022-10-16T14:20:17;96923.88;;;27.81;55.30
2761;BME280;15420;48.636;9.798;2022-10-16T14:22:44;96915.69;;;27.67;56.70
2761;BME280;15420;48.636;9.798;2022-10-16T14:25:26;96924.94;;;27.57;57.72
2761;BME280;15420;48.636;9.798;2022-10-16T14:28:18;96925.59;;;27.42;58.73
2761;BME280;15420;48.636;9.798;2022-10-16T14:30:55;96925.34;;;27.27;59.28
2761;BME280;15420;48.636;9.798;2022-10-16T14:33:34;96925.88;;;27.15;58.68
2761;BME280;15420;48.636;9.798;2022-10-16T14:36:14;96930.75;;;27.04;59.06
2761;BME280;15420;48.636;9.798;2022-10-16T14:39:17;96927.81;;;26.90;58.13
2761;BME280;15420;48.636;9.798;2022-10-16T14:41:48;96933.50;;;26.81;59.28
2761;BME280;15420;48.636;9.798;2022-10-16T14:44:14;96937.44;;;26.70;59.42
2761;BME280;15420;48.636;9.798;2022-10-16T14:46:43;96933.31;;;26.63;59.61
2761;BME280;15420;48.636;9.798;2022-10-16T14:51:40;96941.00;;;26.48;59.21
2761;BME280;15420;48.636;9.798;2022-10-16T14:54:09;96934.22;;;26.41;59.53
2761;BME280;15420;48.636;9.798;2022-10-16T14:56:47;96931.81;;;26.34;59.77
2761;BME280;15420;48.636;9.798;2022-10-16T14:59:33;96938.28;;;26.26;60.62
2761;BME280;15420;48.636;9.798;2022-10-16T15:04:42;96937.03;;;26.13;61.37
2761;BME280;15420;48.636;9.798;2022-10-16T15:07:13;96934.56;;;26.08;61.51
2761;BME280;15420;48.636;9.798;2022-10-16T15:09:39;96934.81;;;26.02;61.55
2761;BME280;15420;48.636;9.798;2022-10-16T15:12:08;96928.88;;;25.97;61.35
2761;BME280;15420;48.636;9.798;2022-10-16T15:14:36;96933.53;;;25.90;61.41
2761;BME280;15420;48.636;9.798;2022-10-16T15:17:05;96933.75;;;25.84;61.71
2761;BME280;15420;48.636;9.798;2022-10-16T15:19:31;96940.94;;;25.81;62.02
2761;BME280;15420;48.636;9.798;2022-10-16T15:21:57;96934.09;;;25.75;62.54
2761;BME280;15420;48.636;9.798;2022-10-16T15:24:24;96937.81;;;25.69;63.00
2761;BME280;15420;48.636;9.798;2022-10-16T15:26:52;96941.50;;;25.64;63.87
2761;BME280;15420;48.636;9.798;2022-10-16T15:29:18;96940.00;;;25.57;64.39
2761;BME280;15420;48.636;9.798;2022-10-16T15:31:47;96948.94;;;25.53;64.07
2761;BME280;15420;48.636;9.798;2022-10-16T15:34:15;96942.16;;;25.46;64.10
2761;BME280;15420;48.636;9.798;2022-10-16T15:36:42;96947.66;;;25.39;64.44
2761;BME280;15420;48.636;9.798;2022-10-16T15:39:16;96940.81;;;25.34;64.88
2761;BME280;15420;48.636;9.798;2022-10-16T15:41:44;96946.25;;;25.29;64.43
2761;BME280;15420;48.636;9.798;2022-10-16T15:44:11;96952.59;;;25.24;65.36
2761;BME280;15420;48.636;9.798;2022-10-16T15:46:37;96956.31;;;25.18;64.85
2761;BME280;15420;48.636;9.798;2022-10-16T15:49:05;96955.59;;;25.13;65.28
2761;BME280;15420;48.636;9.798;2022-10-16T15:51:34;96961.09;;;25.07;66.23
2761;BME280;15420;48.636;9.798;2022-10-16T15:54:07;96963.03;;;25.02;66.84
2761;BME280;15420;48.636;9.798;2022-10-16T15:56:38;96962.41;;;24.94;67.40
2761;BME280;15420;48.636;9.798;2022-10-16T15:59:05;96962.66;;;24.86;67.55
2761;BME280;15420;48.636;9.798;2022-10-16T16:01:35;96959.31;;;24.81;67.81